createdAt,value
2022-09-27T00:04:04.157Z,15.59
2022-09-27T00:16:04.716Z,15.49
2022-09-27T00:28:05.025Z,15.03
2022-09-27T00:40:05.517Z,13.68
2022-09-27T00:52:05.986Z,14.77
2022-09-27T01:04:06.408Z,14.70
2022-09-27T01:16:06.944Z,14.24
2022-09-27T01:28:07.338Z,14.54
2022-09-27T01:40:07.754Z,14.79
2022-09-27T01:52:08.250Z,14.78
2022-09-27T02:04:08.666Z,14.92
2022-09-27T02:16:09.595Z,14.43
2022-09-27T02:28:09.598Z,14.53
2022-09-27T02:40:10.088Z,14.04
2022-09-27T02:52:10.512Z,14.33
2022-09-27T03:04:10.975Z,14.23
2022-09-27T03:16:11.386Z,14.37
2022-09-27T03:28:11.864Z,14.60
2022-09-27T03:40:12.424Z,14.35
2022-09-27T03:52:12.788Z,14.41
2022-09-27T04:04:13.221Z,14.23
2022-09-27T04:16:13.687Z,14.39
2022-09-27T04:28:14.128Z,14.43
2022-09-27T04:40:14.629Z,14.16
2022-09-27T04:52:15.017Z,14.51
2022-09-27T05:04:15.543Z,14.53
2022-09-27T05:16:16.000Z,14.68
2022-09-27T05:28:16.407Z,14.46
2022-09-27T05:40:36.720Z,15.05
2022-09-27T05:52:18.332Z,15.18
2022-09-27T06:04:17.768Z,15.34
2022-09-27T06:16:18.304Z,15.75
2022-09-27T06:28:18.694Z,15.61
2022-09-27T06:40:19.193Z,16.07
2022-09-27T06:52:19.551Z,16.48
2022-09-27T07:04:20.034Z,16.24
2022-09-27T07:16:20.553Z,16.72
2022-09-27T07:28:22.151Z,16.83
2022-09-27T07:40:21.412Z,16.74
2022-09-27T07:52:21.819Z,16.77
2022-09-27T08:04:22.378Z,16.66
2022-09-27T08:16:22.803Z,17.10
2022-09-27T08:28:23.177Z,17.42
2022-09-27T08:40:23.741Z,17.48
2022-09-27T08:52:24.123Z,17.93
2022-09-27T09:04:24.592Z,17.30
2022-09-27T09:16:25.051Z,16.92
2022-09-27T09:28:25.468Z,16.86
2022-09-27T09:40:25.951Z,16.45
2022-09-27T09:52:26.377Z,16.82
2022-09-27T10:04:26.843Z,17.26
2022-09-27T10:16:27.296Z,14.95
2022-09-27T10:28:27.748Z,15.86
2022-09-27T10:40:28.306Z,16.15
2022-09-27T10:52:28.669Z,16.71
2022-09-27T11:04:29.157Z,16.40
2022-09-27T11:16:29.585Z,16.40
2022-09-27T11:28:30.293Z,16.12
2022-09-27T11:40:30.515Z,15.11
2022-09-27T11:52:30.904Z,15.65
2022-09-27T12:04:31.384Z,16.63
2022-09-27T12:16:31.858Z,16.78
2022-09-27T12:28:32.294Z,16.89
2022-09-27T12:40:32.792Z,15.80
2022-09-27T12:52:33.184Z,16.19
2022-09-27T13:04:33.671Z,17.02
2022-09-27T13:16:34.187Z,16.86
2022-09-27T13:28:34.529Z,16.79
2022-09-27T13:40:35.058Z,17.03
2022-09-27T13:52:35.469Z,16.77
2022-09-27T14:04:35.915Z,16.56
2022-09-27T14:16:36.474Z,16.45
2022-09-27T14:28:36.822Z,17.12
2022-09-27T14:40:37.393Z,16.91
2022-09-27T14:52:37.727Z,15.94
2022-09-27T15:04:38.321Z,16.95
2022-09-27T15:16:39.001Z,16.29
2022-09-27T15:28:39.272Z,16.65
2022-09-27T15:40:39.591Z,16.64
2022-09-27T15:52:39.968Z,16.62
2022-09-27T16:04:40.432Z,16.26
2022-09-27T16:16:40.994Z,16.51
2022-09-27T16:28:41.371Z,16.15
2022-09-27T16:40:41.874Z,15.51
2022-09-27T16:52:42.601Z,15.78
2022-09-27T17:04:42.756Z,15.56
2022-09-27T17:16:43.238Z,15.80
2022-09-27T17:28:43.630Z,15.63
2022-09-27T17:40:44.132Z,15.63
2022-09-27T17:52:44.889Z,15.31
2022-09-27T18:04:44.986Z,14.25
2022-09-27T18:16:45.873Z,15.15
2022-09-27T18:28:45.877Z,15.23
2022-09-27T18:40:56.210Z,15.19
2022-09-27T18:52:46.811Z,14.98
2022-09-27T19:04:47.227Z,14.83
2022-09-27T19:16:47.686Z,14.91
2022-09-27T19:28:48.188Z,14.41
2022-09-27T19:40:48.744Z,14.63
2022-09-27T19:52:49.094Z,14.34
2022-09-27T20:04:49.509Z,14.34
2022-09-27T20:16:49.974Z,14.42
2022-09-27T20:28:50.434Z,14.02
2022-09-27T20:40:50.905Z,14.05
2022-09-27T20:52:51.342Z,13.67
2022-09-27T21:04:51.798Z,13.52
2022-09-27T21:16:52.246Z,13.09
2022-09-27T21:28:52.663Z,12.79
2022-09-27T21:40:53.236Z,12.37
2022-09-27T21:52:57.932Z,11.92
2022-09-27T22:04:54.023Z,11.27
2022-09-27T22:16:54.506Z,11.24
2022-09-27T22:28:54.929Z,11.62
2022-09-27T22:40:55.455Z,11.05
2022-09-27T22:52:55.840Z,10.46
2022-09-27T23:04:56.329Z,11.12
2022-09-27T23:16:56.748Z,10.65
2022-09-27T23:28:57.250Z,10.70
2022-09-27T23:40:57.745Z,10.88
2022-09-27T23:52:58.127Z,11.28
